Time;durP1;ratioP1;P1;durP2;ratioP2;P2;SDS_P1;SDS_P2;PMS_P1;PMS_P2;Temp;Humidity;BMP_temperature;BMP_pressure;BME280_temperature;BME280_humidity;BME280_pressure;Samples;Min_cycle;Max_cycle;Signal;HPM_P1;HPM_P2
2024/01/09 00:01:27;;;;;;;;;;;-6.80;99.90;;;;;;5027369;28;20176;-74
2024/01/09 00:03:53;;;;;;;;;;;-6.80;99.90;;;;;;5026981;28;19916;-73
2024/01/09 00:06:19;;;;;;;;;;;-6.70;99.90;;;;;;5025486;28;19909;-73
2024/01/09 00:08:45;;;;;;;;;;;-6.70;99.90;;;;;;5032543;28;20503;-73
2024/01/09 00:11:14;;;;;;;;;;;-6.90;99.90;;;;;;5033627;28;19999;-73
2024/01/09 00:13:40;;;;;;;;;;;-6.80;99.90;;;;;;5032628;28;19908;-73
2024/01/09 00:16:05;;;;;;;;;;;-6.90;99.90;;;;;;5035384;28;20370;-73
2024/01/09 00:18:31;;;;;;;;;;;-6.70;99.90;;;;;;5043873;28;19909;-73
2024/01/09 00:20:56;;;;;;;;;;;-6.70;99.90;;;;;;5032681;28;19909;-73
2024/01/09 00:23:22;;;;;;;;;;;-6.70;99.90;;;;;;5028300;28;20035;-72
2024/01/09 00:25:47;;;;;;;;;;;-6.70;99.90;;;;;;5031349;28;19917;-73
2024/01/09 00:28:12;;;;;;;;;;;-6.60;99.90;;;;;;5035016;28;20000;-73
2024/01/09 00:30:38;;;;;;;;;;;-6.70;99.90;;;;;;5036272;28;19913;-72
2024/01/09 00:33:03;;;;;;;;;;;-6.80;99.90;;;;;;5034502;28;19908;-73
2024/01/09 00:35:29;;;;;;;;;;;-6.80;99.90;;;;;;5034927;28;19909;-73
2024/01/09 00:37:54;;;;;;;;;;;-6.90;99.90;;;;;;5031853;28;19952;-73
2024/01/09 00:40:20;;;;;;;;;;;-6.80;99.90;;;;;;5032061;28;20457;-73
2024/01/09 00:42:45;;;;;;;;;;;-6.90;99.90;;;;;;5031275;28;19924;-73
2024/01/09 00:45:11;;;;;;;;;;;-6.90;99.90;;;;;;5031076;28;19955;-73
2024/01/09 00:47:36;;;;;;;;;;;-7.10;99.90;;;;;;5035675;28;19916;-73
2024/01/09 00:50:02;;;;;;;;;;;-6.80;99.90;;;;;;5038512;28;19913;-73
2024/01/09 00:52:27;;;;;;;;;;;-6.70;99.90;;;;;;5031020;28;19928;-73
2024/01/09 00:54:53;;;;;;;;;;;-6.80;99.90;;;;;;5037036;28;19921;-73
2024/01/09 00:57:18;;;;;;;;;;;-6.80;99.90;;;;;;5031043;28;19948;-73
2024/01/09 00:59:44;;;;;;;;;;;-7.00;99.90;;;;;;5037930;28;19994;-73
2024/01/09 01:02:09;;;;;;;;;;;-7.00;99.90;;;;;;5031479;28;19929;-74
2024/01/09 01:04:38;;;;;;;;;;;-7.10;99.90;;;;;;5030726;28;20362;-74
2024/01/09 01:07:04;;;;;;;;;;;-7.10;99.90;;;;;;5038718;28;20007;-74
2024/01/09 01:09:29;;;;;;;;;;;-7.10;99.90;;;;;;5034218;28;20016;-74
2024/01/09 01:11:55;;;;;;;;;;;-7.10;99.90;;;;;;5031766;28;19910;-74
2024/01/09 01:14:21;;;;;;;;;;;-7.10;99.90;;;;;;5024875;28;19928;-74
2024/01/09 01:16:46;;;;;;;;;;;-7.10;99.90;;;;;;5039198;28;20432;-74
2024/01/09 01:19:12;;;;;;;;;;;-7.10;99.90;;;;;;5029913;28;19913;-74
2024/01/09 01:21:37;;;;;;;;;;;-7.20;99.90;;;;;;5030782;28;20276;-74
2024/01/09 01:24:03;;;;;;;;;;;-7.20;99.90;;;;;;5035459;28;19916;-74
2024/01/09 01:26:29;;;;;;;;;;;-7.10;99.90;;;;;;5033587;28;19917;-73
2024/01/09 01:28:54;;;;;;;;;;;-7.20;99.90;;;;;;5030738;28;20008;-73
2024/01/09 01:31:20;;;;;;;;;;;-7.20;99.90;;;;;;5030628;28;20332;-73
2024/01/09 01:33:45;;;;;;;;;;;-7.00;99.90;;;;;;5030211;28;19956;-73
2024/01/09 01:36:14;;;;;;;;;;;-7.00;99.90;;;;;;5032552;28;19916;-74
2024/01/09 01:38:40;;;;;;;;;;;-7.10;99.90;;;;;;5032283;28;20427;-73
2024/01/09 01:41:06;;;;;;;;;;;-7.10;99.90;;;;;;5033752;28;19916;-73
2024/01/09 01:43:31;;;;;;;;;;;-7.00;99.90;;;;;;5043457;28;20289;-73
2024/01/09 01:45:57;;;;;;;;;;;-7.10;99.90;;;;;;5032443;28;20003;-73
2024/01/09 01:48:22;;;;;;;;;;;-7.20;99.90;;;;;;5037683;28;19913;-73
2024/01/09 01:50:49;;;;;;;;;;;-7.40;99.90;;;;;;5035827;28;20382;-73
2024/01/09 01:53:14;;;;;;;;;;;-7.40;99.90;;;;;;5030743;28;20328;-73
2024/01/09 01:55:40;;;;;;;;;;;-7.30;99.90;;;;;;5034917;28;19909;-74
2024/01/09 01:58:05;;;;;;;;;;;-7.30;99.90;;;;;;5030090;28;19910;-73
2024/01/09 02:00:32;;;;;;;;;;;-7.40;99.90;;;;;;5037655;28;19971;-73
2024/01/09 02:02:57;;;;;;;;;;;-7.60;99.90;;;;;;5029718;28;19915;-74
2024/01/09 02:05:24;;;;;;;;;;;-7.50;99.90;;;;;;5028587;28;19909;-73
2024/01/09 02:07:51;;;;;;;;;;;-7.40;99.90;;;;;;5029986;28;20027;-73
2024/01/09 02:10:17;;;;;;;;;;;-7.60;99.90;;;;;;5033476;28;20290;-73
2024/01/09 02:12:43;;;;;;;;;;;-7.60;99.90;;;;;;5030609;28;19916;-74
2024/01/09 02:15:08;;;;;;;;;;;-7.40;99.90;;;;;;5036807;28;19908;-73
2024/01/09 02:17:35;;;;;;;;;;;-7.50;99.90;;;;;;5037081;28;19913;-73
2024/01/09 02:20:00;;;;;;;;;;;-7.70;99.90;;;;;;5032731;28;19909;-73
2024/01/09 02:22:26;;;;;;;;;;;-7.70;99.90;;;;;;5036479;28;19956;-74
2024/01/09 02:24:51;;;;;;;;;;;-7.60;99.90;;;;;;5032738;28;20357;-74
2024/01/09 02:27:17;;;;;;;;;;;-7.50;99.90;;;;;;5038997;28;19917;-73
2024/01/09 02:29:52;;;;;;;;;;;-7.40;99.90;;;;;;5033246;28;19913;-73
2024/01/09 02:32:18;;;;;;;;;;;-7.60;99.90;;;;;;5037845;28;20496;-73
2024/01/09 02:34:44;;;;;;;;;;;-7.60;99.90;;;;;;5036450;28;19909;-73
2024/01/09 02:37:10;;;;;;;;;;;-7.70;99.90;;;;;;5028520;28;19913;-73
2024/01/09 02:39:36;;;;;;;;;;;-7.90;99.90;;;;;;5039487;28;19909;-73
2024/01/09 02:42:02;;;;;;;;;;;-7.90;99.90;;;;;;5034420;28;19916;-73
2024/01/09 02:44:27;;;;;;;;;;;-8.00;99.90;;;;;;5039026;28;19970;-73
2024/01/09 02:46:53;;;;;;;;;;;-7.90;99.90;;;;;;5024868;28;19909;-73
2024/01/09 02:49:18;;;;;;;;;;;-7.90;99.90;;;;;;5044526;28;19912;-73
2024/01/09 02:51:44;;;;;;;;;;;-8.00;99.90;;;;;;5032034;28;20344;-73
2024/01/09 02:54:09;;;;;;;;;;;-8.10;99.90;;;;;;5041196;28;19909;-73
2024/01/09 02:56:37;;;;;;;;;;;-8.00;99.90;;;;;;5044172;28;20361;-73
2024/01/09 02:59:02;;;;;;;;;;;-7.90;99.90;;;;;;5040783;28;19996;-73
2024/01/09 03:01:28;;;;;;;;;;;-8.00;99.90;;;;;;5039693;28;20007;-73
2024/01/09 03:03:53;;;;;;;;;;;-7.80;99.90;;;;;;5037513;28;19909;-73
2024/01/09 03:06:19;;;;;;;;;;;-7.80;99.90;;;;;;5031229;28;19909;-73
2024/01/09 03:08:44;;;;;;;;;;;-7.70;99.90;;;;;;5042213;28;19978;-73
2024/01/09 03:11:10;;;;;;;;;;;-7.60;99.90;;;;;;5033641;28;20295;-73
2024/01/09 03:13:35;;;;;;;;;;;-7.70;99.90;;;;;;5030626;28;19910;-73
2024/01/09 03:16:00;;;;;;;;;;;-7.70;99.90;;;;;;5044366;28;19917;-73
2024/01/09 03:18:26;;;;;;;;;;;-7.60;99.90;;;;;;5033591;28;19908;-73
2024/01/09 03:20:51;;;;;;;;;;;-7.70;99.90;;;;;;5038886;28;20044;-73
2024/01/09 03:23:17;;;;;;;;;;;-7.70;99.90;;;;;;5033657;28;19909;-73
2024/01/09 03:25:42;;;;;;;;;;;-7.90;99.90;;;;;;5022167;28;19917;-73
2024/01/09 03:28:08;;;;;;;;;;;-7.90;99.90;;;;;;5034784;28;19971;-73
2024/01/09 03:30:33;;;;;;;;;;;-8.00;99.90;;;;;;5028937;28;20373;-73
2024/01/09 03:32:59;;;;;;;;;;;-8.00;99.90;;;;;;5034336;28;19951;-73
2024/01/09 03:35:24;;;;;;;;;;;-8.00;99.90;;;;;;5028048;28;20362;-73
2024/01/09 03:37:50;;;;;;;;;;;-7.90;99.90;;;;;;5036501;28;19909;-73
2024/01/09 03:40:15;;;;;;;;;;;-7.90;99.90;;;;;;5028945;28;19909;-73
2024/01/09 03:42:41;;;;;;;;;;;-8.00;99.90;;;;;;5030031;28;20035;-73
2024/01/09 03:45:07;;;;;;;;;;;-7.90;99.90;;;;;;5034792;28;19909;-73
2024/01/09 03:47:32;;;;;;;;;;;-8.00;99.90;;;;;;5030156;28;19909;-73
2024/01/09 03:49:58;;;;;;;;;;;-8.10;99.90;;;;;;5028443;28;19921;-73
2024/01/09 03:52:24;;;;;;;;;;;-8.00;99.90;;;;;;5031035;28;19919;-73
2024/01/09 03:54:49;;;;;;;;;;;-8.10;99.90;;;;;;5029685;28;19994;-73
2024/01/09 03:57:15;;;;;;;;;;;-8.00;99.90;;;;;;5035550;28;19909;-73
2024/01/09 03:59:41;;;;;;;;;;;-8.00;99.90;;;;;;5039643;28;19909;-73
2024/01/09 04:02:07;;;;;;;;;;;-8.20;99.90;;;;;;5040017;28;20370;-74
2024/01/09 04:04:33;;;;;;;;;;;-8.10;99.90;;;;;;5038218;28;19916;-73
2024/01/09 04:06:58;;;;;;;;;;;-8.20;99.90;;;;;;5036663;28;19949;-73
2024/01/09 04:09:24;;;;;;;;;;;-8.10;99.90;;;;;;5032961;28;19932;-73
2024/01/09 04:11:49;;;;;;;;;;;-8.20;99.90;;;;;;5038780;28;20616;-73
2024/01/09 04:14:15;;;;;;;;;;;-8.10;99.90;;;;;;5045783;28;19908;-73
2024/01/09 04:16:47;;;;;;;;;;;-8.30;99.90;;;;;;5034825;28;19909;-73
2024/01/09 04:19:12;;;;;;;;;;;-8.10;99.90;;;;;;5024591;28;19916;-72
2024/01/09 04:21:38;;;;;;;;;;;-8.20;99.90;;;;;;5043297;28;19909;-73
2024/01/09 04:24:03;;;;;;;;;;;-7.90;99.90;;;;;;5037964;28;20369;-72
2024/01/09 04:26:29;;;;;;;;;;;-8.00;99.90;;;;;;5031598;28;20003;-73
2024/01/09 04:28:54;;;;;;;;;;;-8.00;99.90;;;;;;5028345;28;19917;-71
2024/01/09 04:31:23;;;;;;;;;;;-7.90;99.90;;;;;;5028501;28;19913;-72
2024/01/09 04:33:48;;;;;;;;;;;-7.90;99.90;;;;;;5027970;28;19910;-74
2024/01/09 04:36:14;;;;;;;;;;;-7.70;99.90;;;;;;5035785;28;19916;-72
2024/01/09 04:38:40;;;;;;;;;;;-7.80;99.90;;;;;;5032529;28;19913;-72
2024/01/09 04:41:05;;;;;;;;;;;-7.80;99.90;;;;;;5033582;28;19917;-72
2024/01/09 04:43:31;;;;;;;;;;;-7.80;99.90;;;;;;5027898;28;20383;-72
2024/01/09 04:45:56;;;;;;;;;;;-7.10;99.90;;;;;;5041953;28;19916;-72
2024/01/09 04:48:22;;;;;;;;;;;-7.80;99.90;;;;;;5040850;28;19917;-74
2024/01/09 04:50:47;;;;;;;;;;;-7.90;99.90;;;;;;5032946;28;20270;-72
2024/01/09 04:53:12;;;;;;;;;;;-7.80;99.90;;;;;;5029829;28;19910;-72
2024/01/09 04:55:38;;;;;;;;;;;-7.80;99.90;;;;;;5028756;28;19909;-75
2024/01/09 04:58:03;;;;;;;;;;;-7.80;99.90;;;;;;5030177;28;19909;-72
2024/01/09 05:00:29;;;;;;;;;;;-7.70;99.90;;;;;;5039024;28;19962;-72
2024/01/09 05:02:54;;;;;;;;;;;-7.70;99.90;;;;;;5045247;28;19936;-75
2024/01/09 05:05:20;;;;;;;;;;;-7.70;99.90;;;;;;5036395;28;19959;-72
2024/01/09 05:07:46;;;;;;;;;;;-7.70;99.90;;;;;;5037985;28;19992;-72
2024/01/09 05:10:11;;;;;;;;;;;-7.90;99.90;;;;;;5036578;28;19921;-72
2024/01/09 05:12:37;;;;;;;;;;;-7.90;99.90;;;;;;5034142;28;19920;-74
2024/01/09 05:15:03;;;;;;;;;;;-8.00;99.90;;;;;;5037734;28;19915;-72
2024/01/09 05:17:28;;;;;;;;;;;-7.90;99.90;;;;;;5047674;28;19916;-72
2024/01/09 05:19:54;;;;;;;;;;;-7.90;99.90;;;;;;5050840;28;19982;-73
2024/01/09 05:22:19;;;;;;;;;;;-7.90;99.90;;;;;;5040454;28;19916;-71
2024/01/09 05:24:44;;;;;;;;;;;-8.00;99.90;;;;;;5043509;28;19913;-72
2024/01/09 05:27:10;;;;;;;;;;;-8.00;99.90;;;;;;5045873;28;20015;-74
2024/01/09 05:29:37;;;;;;;;;;;-7.90;99.90;;;;;;5045828;28;19938;-72
2024/01/09 05:32:02;;;;;;;;;;;-8.00;99.90;;;;;;5044260;28;19915;-74
2024/01/09 05:34:29;;;;;;;;;;;-8.10;99.90;;;;;;5043459;28;20533;-72
2024/01/09 05:36:55;;;;;;;;;;;-7.90;99.90;;;;;;5038276;28;20332;-72
2024/01/09 05:39:20;;;;;;;;;;;-8.10;99.90;;;;;;5041730;28;19909;-72
2024/01/09 05:41:46;;;;;;;;;;;-8.10;99.90;;;;;;5037383;28;20008;-72
2024/01/09 05:44:11;;;;;;;;;;;-8.00;99.90;;;;;;5046216;28;20358;-73
2024/01/09 05:46:37;;;;;;;;;;;-8.00;99.90;;;;;;5036143;28;19963;-72
2024/01/09 05:49:02;;;;;;;;;;;-8.30;99.90;;;;;;5037269;28;19920;-72
2024/01/09 05:51:28;;;;;;;;;;;-8.00;99.90;;;;;;5030514;28;19920;-73
2024/01/09 05:53:53;;;;;;;;;;;-8.00;99.90;;;;;;5040443;28;19916;-72
2024/01/09 05:56:18;;;;;;;;;;;-8.00;99.90;;;;;;5032928;28;20450;-72
2024/01/09 05:58:44;;;;;;;;;;;-8.00;99.90;;;;;;5044247;28;19913;-73
2024/01/09 06:01:11;;;;;;;;;;;-8.10;99.90;;;;;;5030563;28;19994;-71
2024/01/09 06:03:36;;;;;;;;;;;-8.30;99.90;;;;;;5035093;28;20011;-75
2024/01/09 06:06:02;;;;;;;;;;;-8.40;99.90;;;;;;5037841;28;20530;-72
2024/01/09 06:08:27;;;;;;;;;;;-8.20;99.90;;;;;;5036896;28;19966;-72
2024/01/09 06:10:53;;;;;;;;;;;-8.10;99.90;;;;;;5033643;28;20452;-74
2024/01/09 06:13:18;;;;;;;;;;;-8.10;99.90;;;;;;5029998;28;19917;-72
2024/01/09 06:15:44;;;;;;;;;;;-8.20;99.90;;;;;;5037668;28;19963;-72
2024/01/09 06:18:09;;;;;;;;;;;-8.30;99.90;;;;;;5046511;28;19909;-73
2024/01/09 06:20:35;;;;;;;;;;;-8.30;99.90;;;;;;5044828;28;19916;-72
2024/01/09 06:23:00;;;;;;;;;;;-8.20;99.90;;;;;;5039111;28;20259;-72
2024/01/09 06:25:26;;;;;;;;;;;-8.20;99.90;;;;;;5028938;28;19913;-74
2024/01/09 06:27:51;;;;;;;;;;;-8.20;99.90;;;;;;5038477;28;19913;-72
2024/01/09 06:30:17;;;;;;;;;;;-8.20;99.90;;;;;;5039952;28;19913;-70
2024/01/09 06:32:42;;;;;;;;;;;-8.20;99.90;;;;;;5040229;28;19916;-74
2024/01/09 06:35:08;;;;;;;;;;;-8.10;99.90;;;;;;5036924;28;19912;-72
2024/01/09 06:37:33;;;;;;;;;;;-8.00;99.90;;;;;;5032931;28;19915;-71
2024/01/09 06:39:59;;;;;;;;;;;-8.00;99.90;;;;;;5029804;28;19909;-72
2024/01/09 06:42:24;;;;;;;;;;;-8.10;99.90;;;;;;5043030;28;20293;-74
2024/01/09 06:44:50;;;;;;;;;;;-8.00;99.90;;;;;;5037914;28;20074;-72
2024/01/09 06:47:15;;;;;;;;;;;-8.00;99.90;;;;;;5030142;28;19916;-71
2024/01/09 06:49:42;;;;;;;;;;;-8.00;99.90;;;;;;5030494;28;19913;-74
2024/01/09 06:52:07;;;;;;;;;;;-8.20;99.90;;;;;;5041386;28;20376;-74
2024/01/09 06:54:33;;;;;;;;;;;-8.40;99.90;;;;;;5037699;28;19909;-72
2024/01/09 06:56:58;;;;;;;;;;;-8.50;99.90;;;;;;5028683;28;19996;-72
2024/01/09 06:59:23;;;;;;;;;;;-8.20;99.90;;;;;;5033487;28;20449;-73
2024/01/09 07:01:49;;;;;;;;;;;-8.10;99.90;;;;;;5037402;28;19913;-73
2024/01/09 07:04:14;;;;;;;;;;;-8.00;99.90;;;;;;5036883;28;19967;-73
2024/01/09 07:06:40;;;;;;;;;;;-8.10;99.90;;;;;;5029267;28;19916;-72
2024/01/09 07:09:05;;;;;;;;;;;-8.10;99.90;;;;;;5042113;28;20003;-73
2024/01/09 07:11:31;;;;;;;;;;;-8.10;99.90;;;;;;5032182;28;19909;-73
2024/01/09 07:13:57;;;;;;;;;;;-8.10;99.90;;;;;;5040645;28;20348;-73
2024/01/09 07:16:22;;;;;;;;;;;-7.90;99.90;;;;;;5023780;28;20283;-73
2024/01/09 07:18:48;;;;;;;;;;;-7.90;99.90;;;;;;5035725;28;20549;-73
2024/01/09 07:21:13;;;;;;;;;;;-8.00;99.90;;;;;;5033102;28;19916;-72
2024/01/09 07:23:39;;;;;;;;;;;-7.90;99.90;;;;;;5030243;28;19909;-72
2024/01/09 07:26:04;;;;;;;;;;;-7.80;99.90;;;;;;5041435;28;20037;-72
2024/01/09 07:28:30;;;;;;;;;;;-7.80;99.90;;;;;;5021859;28;19913;-72
2024/01/09 07:30:56;;;;;;;;;;;-7.80;99.90;;;;;;5043424;28;19982;-72
2024/01/09 07:33:22;;;;;;;;;;;-7.80;99.90;;;;;;5036535;28;19909;-73
2024/01/09 07:35:47;;;;;;;;;;;-7.70;99.90;;;;;;5042488;28;20040;-73
2024/01/09 07:38:13;;;;;;;;;;;-7.60;99.90;;;;;;5034759;28;19909;-73
2024/01/09 07:40:38;;;;;;;;;;;-7.60;99.90;;;;;;5028542;28;19915;-73
2024/01/09 07:43:04;;;;;;;;;;;-7.50;99.90;;;;;;5035306;28;19915;-73
2024/01/09 07:45:29;;;;;;;;;;;-7.40;99.90;;;;;;5030506;28;20320;-73
2024/01/09 07:47:55;;;;;;;;;;;-7.50;99.90;;;;;;5022322;28;19968;-73
2024/01/09 07:50:21;;;;;;;;;;;-7.30;99.90;;;;;;5030387;28;19948;-73
2024/01/09 07:52:46;;;;;;;;;;;-7.30;99.90;;;;;;5030467;28;19914;-72
2024/01/09 07:55:12;;;;;;;;;;;-7.20;99.90;;;;;;5032041;28;20277;-72
2024/01/09 07:57:38;;;;;;;;;;;-7.10;99.90;;;;;;5041960;28;19948;-72
2024/01/09 08:00:04;;;;;;;;;;;-7.00;99.90;;;;;;5034583;28;19916;-72
2024/01/09 08:02:30;;;;;;;;;;;-7.00;99.90;;;;;;5035547;28;20361;-72
2024/01/09 08:04:55;;;;;;;;;;;-6.90;99.90;;;;;;5034325;28;19978;-72
2024/01/09 08:07:21;;;;;;;;;;;-6.80;99.90;;;;;;5035044;28;20008;-72
2024/01/09 08:09:46;;;;;;;;;;;-6.80;99.90;;;;;;5040955;28;19917;-72
2024/01/09 08:12:12;;;;;;;;;;;-6.70;99.90;;;;;;5036814;28;20051;-72
2024/01/09 08:14:37;;;;;;;;;;;-6.70;99.90;;;;;;5041228;28;19916;-72
2024/01/09 08:17:03;;;;;;;;;;;-6.60;99.90;;;;;;5041830;28;20332;-72
2024/01/09 08:19:28;;;;;;;;;;;-6.40;99.90;;;;;;5045093;28;19908;-72
2024/01/09 08:21:54;;;;;;;;;;;-6.20;99.90;;;;;;5039341;28;19915;-73
2024/01/09 08:24:20;;;;;;;;;;;-5.70;99.90;;;;;;5035899;28;19909;-73
2024/01/09 08:26:49;;;;;;;;;;;-5.30;99.90;;;;;;5030971;28;19917;-73
2024/01/09 08:29:17;;;;;;;;;;;-5.40;99.90;;;;;;5029365;28;19935;-73
2024/01/09 08:31:47;;;;;;;;;;;-5.30;99.90;;;;;;5044650;28;19913;-75
2024/01/09 08:34:12;;;;;;;;;;;-4.90;99.90;;;;;;5033086;28;19909;-73
2024/01/09 08:36:38;;;;;;;;;;;-3.60;99.90;;;;;;5035021;28;19909;-73
2024/01/09 08:39:04;;;;;;;;;;;-3.00;99.90;;;;;;5039225;28;19959;-75
2024/01/09 08:41:30;;;;;;;;;;;-2.60;99.90;;;;;;5039632;28;19952;-75
2024/01/09 08:43:55;;;;;;;;;;;-2.90;99.90;;;;;;5046173;28;19916;-72
2024/01/09 08:46:21;;;;;;;;;;;-3.20;99.90;;;;;;5031734;28;19917;-72
2024/01/09 08:48:46;;;;;;;;;;;-2.50;99.90;;;;;;5038356;28;19956;-74
2024/01/09 08:51:12;;;;;;;;;;;-1.80;99.90;;;;;;5035751;28;19914;-75
2024/01/09 08:53:38;;;;;;;;;;;-1.60;99.90;;;;;;5036411;28;19908;-73
2024/01/09 08:56:03;;;;;;;;;;;0.10;99.90;;;;;;5037778;28;19913;-73
2024/01/09 08:58:31;;;;;;;;;;;0.00;99.90;;;;;;5041004;28;19983;-73
2024/01/09 09:00:56;;;;;;;;;;;-0.60;99.90;;;;;;5046602;28;19909;-73
2024/01/09 09:03:21;;;;;;;;;;;-0.30;99.90;;;;;;5043485;28;19909;-73
2024/01/09 09:05:47;;;;;;;;;;;-0.60;99.90;;;;;;5026173;28;19909;-74
2024/01/09 09:08:13;;;;;;;;;;;-0.40;99.90;;;;;;5036959;28;19917;-74
2024/01/09 09:10:38;;;;;;;;;;;-0.40;99.90;;;;;;5035156;28;19910;-74
2024/01/09 09:13:04;;;;;;;;;;;0.50;99.90;;;;;;5038165;28;19916;-74
2024/01/09 09:15:30;;;;;;;;;;;0.60;99.90;;;;;;5045342;28;19917;-74
2024/01/09 09:17:55;;;;;;;;;;;-0.30;99.90;;;;;;5042528;28;19910;-74
2024/01/09 09:20:22;;;;;;;;;;;-0.10;99.90;;;;;;5039404;28;19913;-74
2024/01/09 09:22:47;;;;;;;;;;;0.40;99.90;;;;;;5038350;28;19913;-74
2024/01/09 09:25:13;;;;;;;;;;;1.00;99.90;;;;;;5040208;28;19923;-75
2024/01/09 09:27:41;;;;;;;;;;;1.90;99.90;;;;;;5032942;28;19959;-75
2024/01/09 09:30:09;;;;;;;;;;;1.20;99.90;;;;;;5031302;28;20334;-74
2024/01/09 09:32:35;;;;;;;;;;;-0.30;99.90;;;;;;5029761;28;19956;-75
2024/01/09 09:35:00;;;;;;;;;;;0.40;99.90;;;;;;5035788;28;19936;-74
2024/01/09 09:37:26;;;;;;;;;;;0.10;99.90;;;;;;5034721;28;19944;-74
2024/01/09 09:39:51;;;;;;;;;;;0.10;99.90;;;;;;5031344;28;19916;-74
2024/01/09 09:42:19;;;;;;;;;;;-1.60;99.90;;;;;;5031428;28;20297;-73
2024/01/09 09:44:49;;;;;;;;;;;-0.80;99.90;;;;;;5026902;28;19909;-73
2024/01/09 09:47:15;;;;;;;;;;;-0.80;99.90;;;;;;5031490;28;19917;-74
2024/01/09 09:49:41;;;;;;;;;;;-0.70;99.90;;;;;;5039305;28;20282;-73
2024/01/09 09:52:08;;;;;;;;;;;0.10;99.90;;;;;;5038148;28;19913;-73
2024/01/09 09:54:35;;;;;;;;;;;-0.60;99.90;;;;;;5030644;28;20336;-73
2024/01/09 09:57:00;;;;;;;;;;;-1.10;99.90;;;;;;5032376;28;19955;-75
2024/01/09 09:59:26;;;;;;;;;;;-1.50;99.90;;;;;;5033402;28;19909;-73
2024/01/09 10:01:52;;;;;;;;;;;-0.80;99.90;;;;;;5041422;28;19916;-73
2024/01/09 10:04:27;;;;;;;;;;;-0.60;99.90;;;;;;5023287;28;20313;-73
2024/01/09 10:06:56;;;;;;;;;;;-0.30;99.90;;;;;;5028540;28;20003;-75
2024/01/09 10:09:22;;;;;;;;;;;1.10;99.90;;;;;;5034005;28;19921;-74
2024/01/09 10:11:49;;;;;;;;;;;1.50;99.90;;;;;;5034200;28;20394;-74
2024/01/09 10:14:14;;;;;;;;;;;1.60;99.90;;;;;;5041060;28;19955;-74
2024/01/09 10:16:50;;;;;;;;;;;1.80;99.90;;;;;;5040964;28;20568;-74
2024/01/09 10:19:16;;;;;;;;;;;1.10;99.90;;;;;;5027851;28;19913;-74
2024/01/09 10:21:41;;;;;;;;;;;0.50;99.90;;;;;;5034643;28;19971;-76
2024/01/09 10:24:07;;;;;;;;;;;-0.60;99.90;;;;;;5035284;28;20015;-73
2024/01/09 10:26:33;;;;;;;;;;;-0.30;99.90;;;;;;5030090;28;19924;-73
2024/01/09 10:28:58;;;;;;;;;;;-0.20;99.90;;;;;;5035992;28;20047;-74
2024/01/09 10:31:24;;;;;;;;;;;-0.10;99.90;;;;;;5030351;28;19931;-74
2024/01/09 10:33:49;;;;;;;;;;;-0.30;99.90;;;;;;5030285;28;19913;-73
2024/01/09 10:36:15;;;;;;;;;;;-1.30;99.90;;;;;;5033902;28;20392;-73
2024/01/09 10:38:40;;;;;;;;;;;-1.70;99.90;;;;;;5039157;28;19913;-76
2024/01/09 10:41:19;;;;;;;;;;;-0.40;99.90;;;;;;5037050;28;19909;-74
2024/01/09 10:43:47;;;;;;;;;;;-0.70;99.90;;;;;;5049541;28;19924;-74
2024/01/09 10:46:13;;;;;;;;;;;-0.60;99.90;;;;;;5040368;28;19909;-73
2024/01/09 10:48:40;;;;;;;;;;;-0.60;99.90;;;;;;5033921;28;19923;-73
2024/01/09 10:51:06;;;;;;;;;;;1.30;99.90;;;;;;5035216;28;20400;-73
2024/01/09 10:53:34;;;;;;;;;;;1.00;99.90;;;;;;5029899;28;19913;-74
2024/01/09 10:56:01;;;;;;;;;;;-0.40;99.90;;;;;;5030703;28;19909;-74
2024/01/09 10:58:27;;;;;;;;;;;-0.30;99.90;;;;;;5035068;28;19915;-73
2024/01/09 11:00:52;;;;;;;;;;;-0.50;99.90;;;;;;5038099;28;19944;-74
2024/01/09 11:03:19;;;;;;;;;;;-0.10;99.90;;;;;;5029747;28;19987;-74
2024/01/09 11:05:46;;;;;;;;;;;-1.30;99.90;;;;;;5028826;28;19974;-73
2024/01/09 11:08:14;;;;;;;;;;;-0.80;99.90;;;;;;5029210;28;20400;-73
2024/01/09 11:10:40;;;;;;;;;;;-1.10;99.90;;;;;;5031849;28;20405;-74
2024/01/09 11:13:06;;;;;;;;;;;-2.00;99.90;;;;;;5031962;28;19971;-73
2024/01/09 11:15:43;;;;;;;;;;;-2.00;99.90;;;;;;5038082;28;20255;-75
2024/01/09 11:18:12;;;;;;;;;;;-2.00;99.90;;;;;;5030982;28;19992;-73
2024/01/09 11:20:38;;;;;;;;;;;-2.00;99.90;;;;;;5027349;28;19956;-73
2024/01/09 11:23:04;;;;;;;;;;;-2.20;99.90;;;;;;5025600;28;19909;-72
2024/01/09 11:25:31;;;;;;;;;;;-2.30;99.90;;;;;;5031844;28;19917;-76
2024/01/09 11:27:57;;;;;;;;;;;-2.30;99.90;;;;;;5032678;28;20043;-74
2024/01/09 11:30:26;;;;;;;;;;;-2.60;99.90;;;;;;5030981;28;19952;-73
2024/01/09 11:32:52;;;;;;;;;;;-2.50;99.90;;;;;;5028479;28;19925;-75
2024/01/09 11:35:19;;;;;;;;;;;-2.60;99.90;;;;;;5028286;28;19909;-75
2024/01/09 11:37:48;;;;;;;;;;;-2.80;99.90;;;;;;5035093;28;20293;-74
2024/01/09 11:40:15;;;;;;;;;;;-2.80;99.90;;;;;;5029786;28;20004;-76
2024/01/09 11:42:50;;;;;;;;;;;-2.70;99.90;;;;;;5035446;28;19909;-73
2024/01/09 11:45:24;;;;;;;;;;;-2.70;99.90;;;;;;5028113;28;19911;-73
2024/01/09 11:47:49;;;;;;;;;;;-2.70;99.90;;;;;;5030324;28;19909;-73
2024/01/09 11:50:15;;;;;;;;;;;-2.80;99.90;;;;;;5026784;28;19939;-75
2024/01/09 11:52:42;;;;;;;;;;;-2.90;99.90;;;;;;5030467;28;20388;-74
2024/01/09 11:55:09;;;;;;;;;;;-2.90;99.90;;;;;;5027725;28;20365;-74
2024/01/09 11:57:34;;;;;;;;;;;-2.80;99.90;;;;;;5029764;28;20003;-74
2024/01/09 12:00:01;;;;;;;;;;;-2.90;99.90;;;;;;5029941;28;20341;-74
2024/01/09 12:02:26;;;;;;;;;;;-2.90;99.90;;;;;;5033109;28;19913;-74
2024/01/09 12:04:53;;;;;;;;;;;-2.80;99.90;;;;;;5027514;28;20456;-76
2024/01/09 12:07:19;;;;;;;;;;;-2.80;99.90;;;;;;5034110;28;19909;-73
2024/01/09 12:09:46;;;;;;;;;;;-2.90;99.90;;;;;;5034445;28;19913;-75
2024/01/09 12:12:18;;;;;;;;;;;-2.80;99.90;;;;;;5039237;28;19955;-74
2024/01/09 12:14:50;;;;;;;;;;;-2.80;99.90;;;;;;5029433;28;19909;-74
2024/01/09 12:17:19;;;;;;;;;;;-2.80;99.90;;;;;;5038518;28;19916;-74
2024/01/09 12:19:45;;;;;;;;;;;-2.70;99.90;;;;;;5028052;28;19910;-76
2024/01/09 12:22:10;;;;;;;;;;;-2.70;99.90;;;;;;5026277;28;19917;-74
2024/01/09 12:24:36;;;;;;;;;;;-2.70;99.90;;;;;;5024969;28;20397;-74
2024/01/09 12:27:02;;;;;;;;;;;-2.60;99.90;;;;;;5040900;28;19916;-74
2024/01/09 12:29:27;;;;;;;;;;;-2.60;99.90;;;;;;5041003;28;19913;-75
2024/01/09 12:31:53;;;;;;;;;;;-2.50;99.90;;;;;;5030989;28;20281;-74
2024/01/09 12:34:19;;;;;;;;;;;-2.60;99.90;;;;;;5033871;28;19913;-74
2024/01/09 12:36:45;;;;;;;;;;;-2.60;99.90;;;;;;5031739;28;20357;-74
2024/01/09 12:39:14;;;;;;;;;;;-2.60;99.90;;;;;;5029595;28;19917;-74
2024/01/09 12:41:40;;;;;;;;;;;-2.60;99.90;;;;;;5030026;28;19915;-75
2024/01/09 12:44:09;;;;;;;;;;;-2.50;99.90;;;;;;5021647;28;20035;-74
2024/01/09 12:46:34;;;;;;;;;;;-2.50;99.90;;;;;;5028494;28;19915;-75
2024/01/09 12:49:00;;;;;;;;;;;-2.60;99.90;;;;;;5027941;28;20293;-74
2024/01/09 12:51:25;;;;;;;;;;;-2.40;99.90;;;;;;5032384;28;19914;-75
2024/01/09 12:53:51;;;;;;;;;;;-2.40;99.90;;;;;;5030156;28;20020;-75
2024/01/09 12:56:16;;;;;;;;;;;-2.30;99.90;;;;;;5056975;28;19963;-74
2024/01/09 12:58:44;;;;;;;;;;;-2.40;99.90;;;;;;5030641;28;19995;-75
2024/01/09 13:01:10;;;;;;;;;;;-2.50;99.90;;;;;;5060886;28;20346;-75
2024/01/09 13:03:35;;;;;;;;;;;-2.40;99.90;;;;;;5031773;28;19945;-77
2024/01/09 13:06:04;;;;;;;;;;;-2.30;99.90;;;;;;5035245;28;20039;-75
2024/01/09 13:08:31;;;;;;;;;;;-2.20;99.90;;;;;;5040578;28;19962;-76
2024/01/09 13:10:57;;;;;;;;;;;-2.40;99.90;;;;;;5036807;28;19908;-75
2024/01/09 13:13:22;;;;;;;;;;;-2.30;99.90;;;;;;5047361;28;20259;-75
2024/01/09 13:15:48;;;;;;;;;;;-2.20;99.90;;;;;;5041525;28;19908;-74
2024/01/09 13:18:15;;;;;;;;;;;-2.30;99.90;;;;;;5034375;28;19909;-77
2024/01/09 13:20:41;;;;;;;;;;;-2.20;99.90;;;;;;5032026;28;19916;-75
2024/01/09 13:23:06;;;;;;;;;;;-2.30;99.90;;;;;;5035318;28;19913;-75
2024/01/09 13:25:32;;;;;;;;;;;-2.30;99.90;;;;;;5031041;28;20012;-75
2024/01/09 13:27:57;;;;;;;;;;;-2.30;99.90;;;;;;5036502;28;20294;-75
2024/01/09 13:30:23;;;;;;;;;;;-2.30;99.90;;;;;;5037224;28;19913;-75
2024/01/09 13:32:48;;;;;;;;;;;-2.20;99.90;;;;;;5035394;28;19909;-75
2024/01/09 13:35:14;;;;;;;;;;;-2.20;99.90;;;;;;5034162;28;19999;-75
2024/01/09 13:37:40;;;;;;;;;;;-2.10;99.90;;;;;;5037813;28;19910;-75
2024/01/09 13:40:08;;;;;;;;;;;-2.00;99.90;;;;;;5042356;28;19909;-77
2024/01/09 13:42:34;;;;;;;;;;;-2.10;99.90;;;;;;5036816;28;19987;-76
2024/01/09 13:45:00;;;;;;;;;;;-2.10;99.90;;;;;;5035460;28;19908;-77
2024/01/09 13:47:26;;;;;;;;;;;-2.20;99.90;;;;;;5031031;28;19924;-75
2024/01/09 13:49:51;;;;;;;;;;;-2.00;99.90;;;;;;5030894;28;20015;-75
2024/01/09 13:52:17;;;;;;;;;;;-2.10;99.90;;;;;;5031519;28;20054;-75
2024/01/09 13:54:42;;;;;;;;;;;-2.10;99.90;;;;;;5029580;28;19909;-77
2024/01/09 13:57:11;;;;;;;;;;;-2.00;99.90;;;;;;5027845;28;19909;-75
2024/01/09 13:59:36;;;;;;;;;;;-1.90;99.90;;;;;;5030749;28;19948;-75
2024/01/09 14:02:02;;;;;;;;;;;-2.00;99.90;;;;;;5031594;28;19975;-75
2024/01/09 14:04:28;;;;;;;;;;;-2.00;99.90;;;;;;5042087;28;19908;-75
2024/01/09 14:06:54;;;;;;;;;;;-2.00;99.90;;;;;;5032952;28;20493;-75
2024/01/09 14:09:19;;;;;;;;;;;-2.00;99.90;;;;;;5030491;28;20297;-76
2024/01/09 14:11:45;;;;;;;;;;;-2.00;99.90;;;;;;5031243;28;19916;-75